sensor_id;sensor_type;location;lat;lon;timestamp;P1;durP1;ratioP1;P2;durP2;ratioP2
53875;SDS011;39789;53.216;5.624;2023-01-08T00:01:43;10.52;;;5.88;;
53875;SDS011;39789;53.216;5.624;2023-01-08T00:04:09;7.55;;;6.15;;
53875;SDS011;39789;53.216;5.624;2023-01-08T00:06:35;11.30;;;6.78;;
53875;SDS011;39789;53.216;5.624;2023-01-08T00:09:01;8.80;;;6.25;;
53875;SDS011;39789;53.216;5.624;2023-01-08T00:11:27;8.85;;;6.22;;
53875;SDS011;39789;53.216;5.624;2023-01-08T00:13:52;7.85;;;5.70;;
53875;SDS011;39789;53.216;5.624;2023-01-08T00:16:18;9.63;;;6.30;;
53875;SDS011;39789;53.216;5.624;2023-01-08T00:18:44;9.43;;;6.05;;
53875;SDS011;39789;53.216;5.624;2023-01-08T00:21:11;10.75;;;6.13;;
53875;SDS011;39789;53.216;5.624;2023-01-08T00:23:37;10.82;;;6.50;;
53875;SDS011;39789;53.216;5.624;2023-01-08T00:26:04;7.32;;;6.07;;
53875;SDS011;39789;53.216;5.624;2023-01-08T00:28:32;8.02;;;5.82;;
53875;SDS011;39789;53.216;5.624;2023-01-08T00:30:58;7.45;;;5.75;;
53875;SDS011;39789;53.216;5.624;2023-01-08T00:33:25;8.98;;;5.97;;
53875;SDS011;39789;53.216;5.624;2023-01-08T00:35:51;7.95;;;5.43;;
53875;SDS011;39789;53.216;5.624;2023-01-08T00:38:16;7.43;;;5.72;;
53875;SDS011;39789;53.216;5.624;2023-01-08T00:40:42;7.95;;;5.97;;
53875;SDS011;39789;53.216;5.624;2023-01-08T00:43:07;8.57;;;6.00;;
53875;SDS011;39789;53.216;5.624;2023-01-08T00:45:33;11.18;;;5.90;;
53875;SDS011;39789;53.216;5.624;2023-01-08T00:47:59;7.72;;;5.30;;
53875;SDS011;39789;53.216;5.624;2023-01-08T00:50:25;10.60;;;4.75;;
53875;SDS011;39789;53.216;5.624;2023-01-08T00:52:50;9.63;;;5.28;;
53875;SDS011;39789;53.216;5.624;2023-01-08T00:55:16;9.13;;;4.78;;
53875;SDS011;39789;53.216;5.624;2023-01-08T00:57:42;6.47;;;4.35;;
53875;SDS011;39789;53.216;5.624;2023-01-08T01:00:08;7.32;;;4.22;;
53875;SDS011;39789;53.216;5.624;2023-01-08T01:02:36;8.00;;;4.05;;
53875;SDS011;39789;53.216;5.624;2023-01-08T01:05:03;11.15;;;4.38;;
53875;SDS011;39789;53.216;5.624;2023-01-08T01:07:29;10.25;;;4.10;;
53875;SDS011;39789;53.216;5.624;2023-01-08T01:09:55;8.48;;;3.58;;
53875;SDS011;39789;53.216;5.624;2023-01-08T01:12:21;14.00;;;3.63;;
53875;SDS011;39789;53.216;5.624;2023-01-08T01:14:47;6.43;;;3.25;;
53875;SDS011;39789;53.216;5.624;2023-01-08T01:17:12;12.43;;;3.50;;
53875;SDS011;39789;53.216;5.624;2023-01-08T01:19:38;17.10;;;4.28;;
53875;SDS011;39789;53.216;5.624;2023-01-08T01:22:04;14.77;;;2.92;;
53875;SDS011;39789;53.216;5.624;2023-01-08T01:24:29;13.15;;;3.00;;
53875;SDS011;39789;53.216;5.624;2023-01-08T01:26:55;13.32;;;3.53;;
53875;SDS011;39789;53.216;5.624;2023-01-08T01:29:21;16.60;;;3.63;;
53875;SDS011;39789;53.216;5.624;2023-01-08T01:31:48;9.85;;;3.30;;
53875;SDS011;39789;53.216;5.624;2023-01-08T01:34:13;14.88;;;4.75;;
53875;SDS011;39789;53.216;5.624;2023-01-08T01:36:39;18.75;;;3.50;;
53875;SDS011;39789;53.216;5.624;2023-01-08T01:39:05;12.00;;;2.70;;
53875;SDS011;39789;53.216;5.624;2023-01-08T01:41:31;14.00;;;3.35;;
53875;SDS011;39789;53.216;5.624;2023-01-08T01:47:19;17.85;;;3.97;;
53875;SDS011;39789;53.216;5.624;2023-01-08T01:50:11;13.70;;;3.13;;
53875;SDS011;39789;53.216;5.624;2023-01-08T01:52:55;18.17;;;3.72;;
53875;SDS011;39789;53.216;5.624;2023-01-08T01:55:34;18.30;;;3.28;;
53875;SDS011;39789;53.216;5.624;2023-01-08T01:58:25;16.77;;;3.95;;
53875;SDS011;39789;53.216;5.624;2023-01-08T02:00:50;16.73;;;3.97;;
53875;SDS011;39789;53.216;5.624;2023-01-08T02:03:20;10.73;;;3.17;;
53875;SDS011;39789;53.216;5.624;2023-01-08T02:05:55;15.27;;;3.15;;
53875;SDS011;39789;53.216;5.624;2023-01-08T02:08:55;17.15;;;4.10;;
53875;SDS011;39789;53.216;5.624;2023-01-08T02:28:19;10.00;;;4.72;;
53875;SDS011;39789;53.216;5.624;2023-01-08T02:30:46;8.35;;;2.75;;
53875;SDS011;39789;53.216;5.624;2023-01-08T02:33:13;11.70;;;3.58;;
53875;SDS011;39789;53.216;5.624;2023-01-08T02:35:41;10.50;;;3.05;;
53875;SDS011;39789;53.216;5.624;2023-01-08T02:38:13;10.65;;;3.08;;
53875;SDS011;39789;53.216;5.624;2023-01-08T02:43:34;16.05;;;3.58;;
53875;SDS011;39789;53.216;5.624;2023-01-08T02:46:06;7.70;;;2.42;;
53875;SDS011;39789;53.216;5.624;2023-01-08T02:48:38;9.38;;;2.97;;
53875;SDS011;39789;53.216;5.624;2023-01-08T02:51:16;10.38;;;3.17;;
53875;SDS011;39789;53.216;5.624;2023-01-08T02:54:21;13.88;;;3.22;;
53875;SDS011;39789;53.216;5.624;2023-01-08T02:56:52;9.85;;;2.80;;
53875;SDS011;39789;53.216;5.624;2023-01-08T02:59:22;11.73;;;2.88;;
53875;SDS011;39789;53.216;5.624;2023-01-08T03:01:49;9.82;;;3.40;;
53875;SDS011;39789;53.216;5.624;2023-01-08T03:04:16;13.40;;;3.17;;
53875;SDS011;39789;53.216;5.624;2023-01-08T03:06:44;13.38;;;2.78;;
53875;SDS011;39789;53.216;5.624;2023-01-08T03:09:10;17.33;;;3.47;;
53875;SDS011;39789;53.216;5.624;2023-01-08T03:11:39;11.93;;;2.72;;
53875;SDS011;39789;53.216;5.624;2023-01-08T03:14:31;11.25;;;3.13;;
53875;SDS011;39789;53.216;5.624;2023-01-08T03:17:07;9.52;;;3.30;;
53875;SDS011;39789;53.216;5.624;2023-01-08T03:19:48;13.48;;;2.90;;
53875;SDS011;39789;53.216;5.624;2023-01-08T03:22:18;17.35;;;3.70;;
53875;SDS011;39789;53.216;5.624;2023-01-08T03:24:46;11.68;;;3.20;;
53875;SDS011;39789;53.216;5.624;2023-01-08T03:27:16;16.98;;;2.95;;
53875;SDS011;39789;53.216;5.624;2023-01-08T03:29:48;15.60;;;5.07;;
53875;SDS011;39789;53.216;5.624;2023-01-08T03:32:16;9.68;;;3.00;;
53875;SDS011;39789;53.216;5.624;2023-01-08T03:34:44;12.52;;;3.40;;
53875;SDS011;39789;53.216;5.624;2023-01-08T03:37:12;17.23;;;3.92;;
53875;SDS011;39789;53.216;5.624;2023-01-08T03:39:41;9.43;;;2.60;;
53875;SDS011;39789;53.216;5.624;2023-01-08T03:42:32;13.88;;;3.05;;
53875;SDS011;39789;53.216;5.624;2023-01-08T03:44:58;11.73;;;2.90;;
53875;SDS011;39789;53.216;5.624;2023-01-08T03:47:24;13.90;;;2.80;;
53875;SDS011;39789;53.216;5.624;2023-01-08T03:49:56;9.35;;;2.65;;
53875;SDS011;39789;53.216;5.624;2023-01-08T03:52:28;7.53;;;2.63;;
53875;SDS011;39789;53.216;5.624;2023-01-08T03:54:55;7.15;;;2.78;;
53875;SDS011;39789;53.216;5.624;2023-01-08T03:57:21;10.25;;;3.03;;
53875;SDS011;39789;53.216;5.624;2023-01-08T03:59:47;10.93;;;2.75;;
53875;SDS011;39789;53.216;5.624;2023-01-08T04:02:12;7.07;;;2.83;;
53875;SDS011;39789;53.216;5.624;2023-01-08T04:04:38;8.38;;;3.22;;
53875;SDS011;39789;53.216;5.624;2023-01-08T04:07:04;6.63;;;3.17;;
53875;SDS011;39789;53.216;5.624;2023-01-08T04:09:30;7.53;;;3.20;;
53875;SDS011;39789;53.216;5.624;2023-01-08T04:11:56;7.82;;;3.38;;
53875;SDS011;39789;53.216;5.624;2023-01-08T04:14:21;9.80;;;3.30;;
53875;SDS011;39789;53.216;5.624;2023-01-08T04:16:47;8.70;;;3.40;;
53875;SDS011;39789;53.216;5.624;2023-01-08T04:19:12;11.48;;;3.58;;
53875;SDS011;39789;53.216;5.624;2023-01-08T04:21:38;10.25;;;3.20;;
53875;SDS011;39789;53.216;5.624;2023-01-08T04:24:04;13.68;;;3.72;;
53875;SDS011;39789;53.216;5.624;2023-01-08T04:26:31;12.15;;;4.25;;
53875;SDS011;39789;53.216;5.624;2023-01-08T04:28:57;8.38;;;3.30;;
53875;SDS011;39789;53.216;5.624;2023-01-08T04:31:23;9.40;;;3.75;;
53875;SDS011;39789;53.216;5.624;2023-01-08T04:33:48;9.18;;;3.60;;
53875;SDS011;39789;53.216;5.624;2023-01-08T04:36:14;9.38;;;3.80;;
53875;SDS011;39789;53.216;5.624;2023-01-08T04:38:40;8.48;;;3.67;;
53875;SDS011;39789;53.216;5.624;2023-01-08T04:41:05;6.05;;;3.40;;
53875;SDS011;39789;53.216;5.624;2023-01-08T04:43:31;9.25;;;3.25;;
53875;SDS011;39789;53.216;5.624;2023-01-08T04:45:57;6.63;;;3.15;;
53875;SDS011;39789;53.216;5.624;2023-01-08T04:48:24;8.20;;;3.17;;
53875;SDS011;39789;53.216;5.624;2023-01-08T04:50:51;6.70;;;3.15;;
53875;SDS011;39789;53.216;5.624;2023-01-08T04:53:17;6.22;;;3.13;;
53875;SDS011;39789;53.216;5.624;2023-01-08T04:55:42;7.28;;;2.95;;
53875;SDS011;39789;53.216;5.624;2023-01-08T04:58:08;8.10;;;3.75;;
53875;SDS011;39789;53.216;5.624;2023-01-08T05:00:34;8.70;;;2.80;;
53875;SDS011;39789;53.216;5.624;2023-01-08T05:02:59;5.20;;;2.88;;
53875;SDS011;39789;53.216;5.624;2023-01-08T05:05:25;7.82;;;2.97;;
53875;SDS011;39789;53.216;5.624;2023-01-08T05:07:50;6.90;;;3.00;;
53875;SDS011;39789;53.216;5.624;2023-01-08T05:10:16;9.10;;;2.95;;
53875;SDS011;39789;53.216;5.624;2023-01-08T05:12:42;7.80;;;2.67;;
53875;SDS011;39789;53.216;5.624;2023-01-08T05:15:07;9.32;;;2.95;;
53875;SDS011;39789;53.216;5.624;2023-01-08T05:17:34;5.45;;;2.47;;
53875;SDS011;39789;53.216;5.624;2023-01-08T05:19:59;5.63;;;2.35;;
53875;SDS011;39789;53.216;5.624;2023-01-08T05:22:25;11.55;;;3.05;;
53875;SDS011;39789;53.216;5.624;2023-01-08T05:24:50;6.38;;;2.92;;
53875;SDS011;39789;53.216;5.624;2023-01-08T05:27:16;7.88;;;2.47;;
53875;SDS011;39789;53.216;5.624;2023-01-08T05:29:41;7.15;;;2.78;;
53875;SDS011;39789;53.216;5.624;2023-01-08T05:32:14;5.00;;;2.15;;
53875;SDS011;39789;53.216;5.624;2023-01-08T05:34:41;5.60;;;2.97;;
53875;SDS011;39789;53.216;5.624;2023-01-08T05:37:08;7.22;;;2.50;;
53875;SDS011;39789;53.216;5.624;2023-01-08T05:39:34;7.45;;;2.72;;
53875;SDS011;39789;53.216;5.624;2023-01-08T05:42:00;4.55;;;2.25;;
53875;SDS011;39789;53.216;5.624;2023-01-08T05:44:25;7.72;;;2.40;;
53875;SDS011;39789;53.216;5.624;2023-01-08T05:46:52;9.20;;;2.20;;
53875;SDS011;39789;53.216;5.624;2023-01-08T05:49:17;8.15;;;2.35;;
53875;SDS011;39789;53.216;5.624;2023-01-08T05:51:44;6.82;;;2.53;;
53875;SDS011;39789;53.216;5.624;2023-01-08T05:54:09;5.93;;;2.30;;
53875;SDS011;39789;53.216;5.624;2023-01-08T05:56:35;5.55;;;2.17;;
53875;SDS011;39789;53.216;5.624;2023-01-08T05:59:00;10.18;;;2.42;;
53875;SDS011;39789;53.216;5.624;2023-01-08T06:01:26;9.77;;;2.83;;
53875;SDS011;39789;53.216;5.624;2023-01-08T06:03:53;5.18;;;2.10;;
53875;SDS011;39789;53.216;5.624;2023-01-08T06:06:20;4.82;;;2.25;;
53875;SDS011;39789;53.216;5.624;2023-01-08T06:08:46;6.32;;;2.35;;
53875;SDS011;39789;53.216;5.624;2023-01-08T06:11:11;7.97;;;2.15;;
53875;SDS011;39789;53.216;5.624;2023-01-08T06:13:39;7.00;;;2.42;;
53875;SDS011;39789;53.216;5.624;2023-01-08T06:16:06;5.60;;;2.10;;
53875;SDS011;39789;53.216;5.624;2023-01-08T06:18:32;6.85;;;2.33;;
53875;SDS011;39789;53.216;5.624;2023-01-08T06:20:58;9.48;;;2.58;;
53875;SDS011;39789;53.216;5.624;2023-01-08T06:23:24;7.22;;;2.38;;
53875;SDS011;39789;53.216;5.624;2023-01-08T06:25:53;7.50;;;2.53;;
53875;SDS011;39789;53.216;5.624;2023-01-08T06:28:20;6.22;;;2.13;;
53875;SDS011;39789;53.216;5.624;2023-01-08T06:30:46;7.47;;;2.83;;
53875;SDS011;39789;53.216;5.624;2023-01-08T06:33:12;4.25;;;1.98;;
53875;SDS011;39789;53.216;5.624;2023-01-08T06:35:37;7.50;;;2.10;;
53875;SDS011;39789;53.216;5.624;2023-01-08T06:38:03;8.57;;;2.88;;
53875;SDS011;39789;53.216;5.624;2023-01-08T06:40:28;6.68;;;2.50;;
53875;SDS011;39789;53.216;5.624;2023-01-08T06:42:54;7.65;;;2.75;;
53875;SDS011;39789;53.216;5.624;2023-01-08T06:45:19;10.15;;;3.22;;
53875;SDS011;39789;53.216;5.624;2023-01-08T06:47:45;11.48;;;2.58;;
53875;SDS011;39789;53.216;5.624;2023-01-08T06:50:11;15.13;;;2.90;;
53875;SDS011;39789;53.216;5.624;2023-01-08T06:52:37;4.90;;;2.20;;
53875;SDS011;39789;53.216;5.624;2023-01-08T06:55:03;10.38;;;2.50;;
53875;SDS011;39789;53.216;5.624;2023-01-08T06:57:30;5.53;;;2.17;;
53875;SDS011;39789;53.216;5.624;2023-01-08T06:59:56;5.72;;;2.63;;
53875;SDS011;39789;53.216;5.624;2023-01-08T07:02:21;6.85;;;2.63;;
53875;SDS011;39789;53.216;5.624;2023-01-08T07:04:47;9.82;;;2.35;;
53875;SDS011;39789;53.216;5.624;2023-01-08T07:07:13;7.72;;;2.40;;
53875;SDS011;39789;53.216;5.624;2023-01-08T07:09:40;7.22;;;2.40;;
53875;SDS011;39789;53.216;5.624;2023-01-08T07:12:08;8.40;;;2.60;;
53875;SDS011;39789;53.216;5.624;2023-01-08T07:14:36;13.38;;;2.67;;
53875;SDS011;39789;53.216;5.624;2023-01-08T07:17:02;15.90;;;2.95;;
53875;SDS011;39789;53.216;5.624;2023-01-08T07:19:27;13.43;;;2.88;;
53875;SDS011;39789;53.216;5.624;2023-01-08T07:21:53;5.28;;;2.13;;
53875;SDS011;39789;53.216;5.624;2023-01-08T07:24:18;10.52;;;2.28;;
53875;SDS011;39789;53.216;5.624;2023-01-08T07:26:44;7.15;;;2.60;;
53875;SDS011;39789;53.216;5.624;2023-01-08T07:29:09;12.38;;;2.40;;
53875;SDS011;39789;53.216;5.624;2023-01-08T07:31:35;8.38;;;2.40;;
53875;SDS011;39789;53.216;5.624;2023-01-08T07:34:00;8.23;;;2.75;;
53875;SDS011;39789;53.216;5.624;2023-01-08T07:36:26;9.82;;;2.70;;
53875;SDS011;39789;53.216;5.624;2023-01-08T07:38:52;9.82;;;3.47;;
53875;SDS011;39789;53.216;5.624;2023-01-08T07:41:17;8.27;;;2.67;;
53875;SDS011;39789;53.216;5.624;2023-01-08T07:43:43;8.80;;;2.28;;
53875;SDS011;39789;53.216;5.624;2023-01-08T07:46:10;7.60;;;2.58;;
53875;SDS011;39789;53.216;5.624;2023-01-08T07:48:36;10.77;;;2.67;;
53875;SDS011;39789;53.216;5.624;2023-01-08T07:51:02;11.13;;;3.50;;
53875;SDS011;39789;53.216;5.624;2023-01-08T07:53:32;9.32;;;2.97;;
53875;SDS011;39789;53.216;5.624;2023-01-08T07:56:02;10.15;;;3.10;;
53875;SDS011;39789;53.216;5.624;2023-01-08T07:58:29;13.57;;;3.35;;
53875;SDS011;39789;53.216;5.624;2023-01-08T08:00:55;9.48;;;3.60;;
53875;SDS011;39789;53.216;5.624;2023-01-08T08:03:21;10.00;;;3.35;;
53875;SDS011;39789;53.216;5.624;2023-01-08T08:05:47;7.80;;;3.33;;
53875;SDS011;39789;53.216;5.624;2023-01-08T08:08:13;8.18;;;3.13;;
53875;SDS011;39789;53.216;5.624;2023-01-08T08:10:39;7.63;;;3.00;;
53875;SDS011;39789;53.216;5.624;2023-01-08T08:13:06;9.60;;;3.45;;
53875;SDS011;39789;53.216;5.624;2023-01-08T08:15:33;8.38;;;3.28;;
53875;SDS011;39789;53.216;5.624;2023-01-08T08:17:59;7.00;;;3.08;;
53875;SDS011;39789;53.216;5.624;2023-01-08T08:20:25;8.80;;;3.42;;
53875;SDS011;39789;53.216;5.624;2023-01-08T08:22:51;7.03;;;3.67;;
53875;SDS011;39789;53.216;5.624;2023-01-08T08:25:23;11.43;;;3.45;;
53875;SDS011;39789;53.216;5.624;2023-01-08T08:27:49;7.97;;;3.13;;
53875;SDS011;39789;53.216;5.624;2023-01-08T08:30:14;8.15;;;3.55;;
53875;SDS011;39789;53.216;5.624;2023-01-08T08:32:40;7.22;;;3.20;;
53875;SDS011;39789;53.216;5.624;2023-01-08T08:35:06;7.93;;;3.38;;
53875;SDS011;39789;53.216;5.624;2023-01-08T08:37:32;10.60;;;3.10;;
53875;SDS011;39789;53.216;5.624;2023-01-08T08:39:57;7.72;;;2.75;;
53875;SDS011;39789;53.216;5.624;2023-01-08T08:42:23;8.50;;;2.97;;
53875;SDS011;39789;53.216;5.624;2023-01-08T08:44:48;10.32;;;3.28;;
53875;SDS011;39789;53.216;5.624;2023-01-08T08:47:14;8.43;;;3.22;;
53875;SDS011;39789;53.216;5.624;2023-01-08T08:49:39;10.30;;;3.00;;
53875;SDS011;39789;53.216;5.624;2023-01-08T08:52:05;8.68;;;3.22;;
53875;SDS011;39789;53.216;5.624;2023-01-08T08:54:31;12.90;;;4.22;;
53875;SDS011;39789;53.216;5.624;2023-01-08T08:56:56;9.73;;;3.13;;
53875;SDS011;39789;53.216;5.624;2023-01-08T08:59:22;6.68;;;3.30;;
53875;SDS011;39789;53.216;5.624;2023-01-08T09:01:47;10.68;;;2.42;;
53875;SDS011;39789;53.216;5.624;2023-01-08T09:04:13;11.00;;;3.05;;
53875;SDS011;39789;53.216;5.624;2023-01-08T09:06:38;9.25;;;3.25;;
53875;SDS011;39789;53.216;5.624;2023-01-08T09:09:04;8.98;;;3.38;;
53875;SDS011;39789;53.216;5.624;2023-01-08T09:11:30;8.27;;;2.47;;
53875;SDS011;39789;53.216;5.624;2023-01-08T09:13:56;7.55;;;2.90;;
53875;SDS011;39789;53.216;5.624;2023-01-08T09:16:21;6.88;;;2.72;;
53875;SDS011;39789;53.216;5.624;2023-01-08T09:18:47;8.30;;;2.80;;
53875;SDS011;39789;53.216;5.624;2023-01-08T09:21:13;8.48;;;3.03;;
53875;SDS011;39789;53.216;5.624;2023-01-08T09:23:39;15.38;;;3.33;;
53875;SDS011;39789;53.216;5.624;2023-01-08T09:26:05;8.35;;;2.70;;
53875;SDS011;39789;53.216;5.624;2023-01-08T09:28:31;13.15;;;2.90;;
53875;SDS011;39789;53.216;5.624;2023-01-08T09:31:01;9.68;;;3.50;;
53875;SDS011;39789;53.216;5.624;2023-01-08T09:33:27;9.10;;;2.83;;
53875;SDS011;39789;53.216;5.624;2023-01-08T09:35:54;7.45;;;2.53;;
53875;SDS011;39789;53.216;5.624;2023-01-08T09:38:19;8.98;;;2.65;;
53875;SDS011;39789;53.216;5.624;2023-01-08T09:43:30;10.38;;;2.92;;
53875;SDS011;39789;53.216;5.624;2023-01-08T09:45:59;12.10;;;3.28;;
53875;SDS011;39789;53.216;5.624;2023-01-08T09:48:28;7.70;;;3.22;;
53875;SDS011;39789;53.216;5.624;2023-01-08T09:50:56;9.63;;;2.75;;
53875;SDS011;39789;53.216;5.624;2023-01-08T09:53:23;11.13;;;3.17;;
53875;SDS011;39789;53.216;5.624;2023-01-08T09:56:00;8.93;;;2.92;;
53875;SDS011;39789;53.216;5.624;2023-01-08T10:01:03;9.95;;;3.30;;
53875;SDS011;39789;53.216;5.624;2023-01-08T10:03:36;13.40;;;3.25;;
53875;SDS011;39789;53.216;5.624;2023-01-08T10:06:09;7.60;;;2.70;;
53875;SDS011;39789;53.216;5.624;2023-01-08T10:08:39;16.40;;;3.42;;
53875;SDS011;39789;53.216;5.624;2023-01-08T10:11:05;9.85;;;2.92;;
53875;SDS011;39789;53.216;5.624;2023-01-08T10:13:32;8.75;;;2.67;;
53875;SDS011;39789;53.216;5.624;2023-01-08T10:16:02;11.27;;;3.08;;
53875;SDS011;39789;53.216;5.624;2023-01-08T10:18:32;11.40;;;2.33;;
53875;SDS011;39789;53.216;5.624;2023-01-08T10:20:59;10.70;;;2.90;;
53875;SDS011;39789;53.216;5.624;2023-01-08T10:23:24;6.95;;;3.35;;
53875;SDS011;39789;53.216;5.624;2023-01-08T10:25:52;8.70;;;3.10;;
53875;SDS011;39789;53.216;5.624;2023-01-08T10:28:26;12.68;;;2.80;;
53875;SDS011;39789;53.216;5.624;2023-01-08T10:30:57;10.95;;;2.40;;
53875;SDS011;39789;53.216;5.624;2023-01-08T10:33:28;9.90;;;2.63;;
53875;SDS011;39789;53.216;5.624;2023-01-08T10:36:02;8.45;;;3.35;;
53875;SDS011;39789;53.216;5.624;2023-01-08T10:38:31;12.02;;;2.60;;
53875;SDS011;39789;53.216;5.624;2023-01-08T10:40:59;10.98;;;2.65;;
53875;SDS011;39789;53.216;5.624;2023-01-08T10:43:30;12.93;;;3.03;;
53875;SDS011;39789;53.216;5.624;2023-01-08T10:48:33;11.63;;;3.53;;
53875;SDS011;39789;53.216;5.624;2023-01-08T10:51:25;12.20;;;2.65;;
53875;SDS011;39789;53.216;5.624;2023-01-08T10:53:52;13.23;;;3.30;;
53875;SDS011;39789;53.216;5.624;2023-01-08T10:56:20;9.40;;;2.85;;
53875;SDS011;39789;53.216;5.624;2023-01-08T10:58:49;15.18;;;3.05;;
53875;SDS011;39789;53.216;5.624;2023-01-08T11:01:17;12.95;;;2.63;;
53875;SDS011;39789;53.216;5.624;2023-01-08T11:03:48;8.15;;;2.80;;
53875;SDS011;39789;53.216;5.624;2023-01-08T11:06:18;12.32;;;2.65;;
53875;SDS011;39789;53.216;5.624;2023-01-08T11:08:53;10.23;;;2.50;;
53875;SDS011;39789;53.216;5.624;2023-01-08T11:11:30;9.85;;;3.15;;
53875;SDS011;39789;53.216;5.624;2023-01-08T11:14:01;10.40;;;2.78;;
53875;SDS011;39789;53.216;5.624;2023-01-08T11:16:32;12.55;;;3.47;;
53875;SDS011;39789;53.216;5.624;2023-01-08T11:19:00;15.32;;;2.63;;
53875;SDS011;39789;53.216;5.624;2023-01-08T11:21:27;8.82;;;2.83;;
53875;SDS011;39789;53.216;5.624;2023-01-08T11:26:47;11.65;;;2.75;;
53875;SDS011;39789;53.216;5.624;2023-01-08T11:29:20;11.40;;;2.85;;
53875;SDS011;39789;53.216;5.624;2023-01-08T11:31:54;9.90;;;2.50;;
53875;SDS011;39789;53.216;5.624;2023-01-08T11:37:34;9.98;;;2.88;;
53875;SDS011;39789;53.216;5.624;2023-01-08T11:40:10;11.90;;;2.72;;
53875;SDS011;39789;53.216;5.624;2023-01-08T11:45:45;10.00;;;2.40;;
53875;SDS011;39789;53.216;5.624;2023-01-08T11:51:28;11.32;;;2.85;;
53875;SDS011;39789;53.216;5.624;2023-01-08T11:56:46;11.07;;;2.83;;
53875;SDS011;39789;53.216;5.624;2023-01-08T12:02:18;10.18;;;3.00;;
53875;SDS011;39789;53.216;5.624;2023-01-08T12:05:21;10.82;;;2.75;;
53875;SDS011;39789;53.216;5.624;2023-01-08T12:08:07;14.95;;;3.90;;
53875;SDS011;39789;53.216;5.624;2023-01-08T12:10:54;10.88;;;3.42;;
53875;SDS011;39789;53.216;5.624;2023-01-08T12:22:17;14.48;;;3.80;;
53875;SDS011;39789;53.216;5.624;2023-01-08T12:36:15;9.98;;;3.22;;
53875;SDS011;39789;53.216;5.624;2023-01-08T12:41:16;9.13;;;3.10;;
53875;SDS011;39789;53.216;5.624;2023-01-08T12:44:00;9.20;;;3.40;;
53875;SDS011;39789;53.216;5.624;2023-01-08T12:46:29;10.18;;;3.15;;
53875;SDS011;39789;53.216;5.624;2023-01-08T12:48:57;10.68;;;3.50;;
53875;SDS011;39789;53.216;5.624;2023-01-08T12:51:33;11.35;;;3.97;;
53875;SDS011;39789;53.216;5.624;2023-01-08T12:57:04;13.38;;;4.35;;
53875;SDS011;39789;53.216;5.624;2023-01-08T12:59:43;10.45;;;5.18;;
53875;SDS011;39789;53.216;5.624;2023-01-08T13:07:43;10.57;;;4.00;;
53875;SDS011;39789;53.216;5.624;2023-01-08T13:13:37;12.07;;;3.97;;
53875;SDS011;39789;53.216;5.624;2023-01-08T13:18:38;12.25;;;4.55;;
53875;SDS011;39789;53.216;5.624;2023-01-08T13:21:04;10.63;;;4.30;;
53875;SDS011;39789;53.216;5.624;2023-01-08T13:23:34;8.68;;;4.35;;
53875;SDS011;39789;53.216;5.624;2023-01-08T13:26:01;9.25;;;4.47;;
53875;SDS011;39789;53.216;5.624;2023-01-08T13:32:00;8.80;;;4.03;;
53875;SDS011;39789;53.216;5.624;2023-01-08T13:34:37;9.73;;;3.70;;
53875;SDS011;39789;53.216;5.624;2023-01-08T13:40:48;11.05;;;3.75;;
53875;SDS011;39789;53.216;5.624;2023-01-08T13:43:21;10.00;;;4.45;;
53875;SDS011;39789;53.216;5.624;2023-01-08T13:48:27;7.75;;;3.40;;
53875;SDS011;39789;53.216;5.624;2023-01-08T13:51:04;9.27;;;3.70;;
53875;SDS011;39789;53.216;5.624;2023-01-08T13:53:30;7.25;;;3.40;;
53875;SDS011;39789;53.216;5.624;2023-01-08T13:55:58;9.05;;;3.75;;
53875;SDS011;39789;53.216;5.624;2023-01-08T13:58:25;7.47;;;3.17;;
53875;SDS011;39789;53.216;5.624;2023-01-08T14:00:53;8.50;;;3.22;;
53875;SDS011;39789;53.216;5.624;2023-01-08T14:03:27;9.93;;;3.40;;
53875;SDS011;39789;53.216;5.624;2023-01-08T14:08:30;9.63;;;3.25;;
53875;SDS011;39789;53.216;5.624;2023-01-08T14:10:55;11.75;;;3.85;;
53875;SDS011;39789;53.216;5.624;2023-01-08T14:13:23;9.77;;;3.50;;
53875;SDS011;39789;53.216;5.624;2023-01-08T14:15:57;7.35;;;3.75;;
53875;SDS011;39789;53.216;5.624;2023-01-08T14:18:28;8.15;;;3.42;;
53875;SDS011;39789;53.216;5.624;2023-01-08T14:20:54;14.13;;;4.13;;
53875;SDS011;39789;53.216;5.624;2023-01-08T14:23:22;5.03;;;3.45;;
53875;SDS011;39789;53.216;5.624;2023-01-08T14:25:54;12.80;;;4.32;;
53875;SDS011;39789;53.216;5.624;2023-01-08T14:28:21;6.60;;;3.20;;
53875;SDS011;39789;53.216;5.624;2023-01-08T14:30:54;7.07;;;2.83;;
53875;SDS011;39789;53.216;5.624;2023-01-08T14:33:34;5.93;;;3.00;;
53875;SDS011;39789;53.216;5.624;2023-01-08T14:36:01;8.38;;;3.60;;
53875;SDS011;39789;53.216;5.624;2023-01-08T14:38:30;10.10;;;3.50;;
53875;SDS011;39789;53.216;5.624;2023-01-08T14:41:06;6.20;;;3.05;;
53875;SDS011;39789;53.216;5.624;2023-01-08T14:43:38;4.68;;;3.13;;
53875;SDS011;39789;53.216;5.624;2023-01-08T14:46:20;4.95;;;3.33;;
53875;SDS011;39789;53.216;5.624;2023-01-08T14:48:54;7.28;;;3.25;;
53875;SDS011;39789;53.216;5.624;2023-01-08T14:51:25;9.90;;;3.40;;
53875;SDS011;39789;53.216;5.624;2023-01-08T14:53:54;6.20;;;3.22;;
53875;SDS011;39789;53.216;5.624;2023-01-08T14:56:23;8.27;;;3.50;;
53875;SDS011;39789;53.216;5.624;2023-01-08T14:58:57;9.70;;;3.85;;
53875;SDS011;39789;53.216;5.624;2023-01-08T15:01:24;11.50;;;3.70;;
53875;SDS011;39789;53.216;5.624;2023-01-08T15:04:05;6.70;;;2.90;;
53875;SDS011;39789;53.216;5.624;2023-01-08T15:06:34;9.73;;;3.83;;
53875;SDS011;39789;53.216;5.624;2023-01-08T15:09:00;8.00;;;4.65;;
53875;SDS011;39789;53.216;5.624;2023-01-08T15:11:29;10.48;;;3.42;;
53875;SDS011;39789;53.216;5.624;2023-01-08T15:13:56;8.82;;;3.53;;
53875;SDS011;39789;53.216;5.624;2023-01-08T15:16:28;8.57;;;3.28;;
53875;SDS011;39789;53.216;5.624;2023-01-08T15:19:03;7.72;;;4.10;;
53875;SDS011;39789;53.216;5.624;2023-01-08T15:21:31;10.13;;;4.63;;
53875;SDS011;39789;53.216;5.624;2023-01-08T15:23:58;5.97;;;3.45;;
53875;SDS011;39789;53.216;5.624;2023-01-08T15:26:26;6.85;;;3.65;;
53875;SDS011;39789;53.216;5.624;2023-01-08T15:28:59;7.88;;;3.88;;
53875;SDS011;39789;53.216;5.624;2023-01-08T15:31:29;11.88;;;3.90;;
53875;SDS011;39789;53.216;5.624;2023-01-08T15:34:06;7.57;;;3.65;;
53875;SDS011;39789;53.216;5.624;2023-01-08T15:36:32;8.02;;;3.85;;
53875;SDS011;39789;53.216;5.624;2023-01-08T15:38:57;10.00;;;4.13;;
53875;SDS011;39789;53.216;5.624;2023-01-08T15:41:23;13.68;;;4.20;;
53875;SDS011;39789;53.216;5.624;2023-01-08T15:44:08;6.22;;;3.70;;
53875;SDS011;39789;53.216;5.624;2023-01-08T15:46:36;7.47;;;3.80;;
53875;SDS011;39789;53.216;5.624;2023-01-08T15:49:02;7.80;;;4.40;;
53875;SDS011;39789;53.216;5.624;2023-01-08T15:51:31;7.00;;;3.97;;
53875;SDS011;39789;53.216;5.624;2023-01-08T15:53:58;6.80;;;4.00;;
53875;SDS011;39789;53.216;5.624;2023-01-08T15:56:25;7.90;;;3.50;;
53875;SDS011;39789;53.216;5.624;2023-01-08T15:58:50;8.55;;;4.22;;
53875;SDS011;39789;53.216;5.624;2023-01-08T16:01:17;9.60;;;4.47;;
53875;SDS011;39789;53.216;5.624;2023-01-08T16:03:43;10.30;;;4.90;;
53875;SDS011;39789;53.216;5.624;2023-01-08T16:06:09;6.72;;;3.42;;
53875;SDS011;39789;53.216;5.624;2023-01-08T16:08:35;7.43;;;4.40;;
53875;SDS011;39789;53.216;5.624;2023-01-08T16:11:01;10.07;;;4.50;;
53875;SDS011;39789;53.216;5.624;2023-01-08T16:13:26;9.40;;;4.50;;
53875;SDS011;39789;53.216;5.624;2023-01-08T16:15:52;6.40;;;4.30;;
53875;SDS011;39789;53.216;5.624;2023-01-08T16:18:19;7.60;;;3.90;;
53875;SDS011;39789;53.216;5.624;2023-01-08T16:20:44;9.60;;;4.15;;
53875;SDS011;39789;53.216;5.624;2023-01-08T16:23:10;9.00;;;4.00;;
53875;SDS011;39789;53.216;5.624;2023-01-08T16:25:37;7.72;;;4.20;;
53875;SDS011;39789;53.216;5.624;2023-01-08T16:28:03;7.07;;;3.92;;
53875;SDS011;39789;53.216;5.624;2023-01-08T16:30:29;6.78;;;3.78;;